Time;durP1;ratioP1;P1;durP2;ratioP2;P2;SDS_P1;SDS_P2;PMS_P1;PMS_P2;Temp;Humidity;BMP_temperature;BMP_pressure;BME280_temperature;BME280_humidity;BME280_pressure;Samples;Min_cycle;Max_cycle;Signal;HPM_P1;HPM_P2
2023/04/23 00:02:29;;;;;;;72.95;39.35;;;;;;;7.75;100.00;100645.53;5031380;28;20041;-59
2023/04/23 00:05:03;;;;;;;63.60;35.67;;;;;;;7.88;100.00;100643.03;5028591;28;20045;-59
2023/04/23 00:07:34;;;;;;;57.83;34.20;;;;;;;7.93;100.00;100652.34;5032408;28;20073;-59
2023/04/23 00:10:04;;;;;;;58.25;35.25;;;;;;;7.93;100.00;100648.88;5032310;28;20103;-59
2023/04/23 00:12:33;;;;;;;64.07;37.47;;;;;;;7.92;100.00;100644.56;5029442;28;20046;-59
2023/04/23 00:15:01;;;;;;;64.70;37.15;;;;;;;7.94;100.00;100643.53;5029400;28;20123;-59
2023/04/23 00:17:33;;;;;;;62.55;36.03;;;;;;;7.91;100.00;100645.50;5031225;28;20049;-59
2023/04/23 00:20:01;;;;;;;64.70;38.25;;;;;;;7.94;100.00;100643.53;5032543;28;20438;-59
2023/04/23 00:22:29;;;;;;;62.97;36.83;;;;;;;7.96;100.00;100630.34;5032414;28;20041;-59
2023/04/23 00:24:59;;;;;;;61.70;36.50;;;;;;;8.00;100.00;100631.03;5032829;28;20092;-59
2023/04/23 00:27:27;;;;;;;66.50;37.70;;;;;;;8.00;100.00;100636.25;5032484;28;20045;-59
2023/04/23 00:29:55;;;;;;;63.45;37.53;;;;;;;7.89;100.00;100642.94;5032493;28;20053;-58
2023/04/23 00:32:23;;;;;;;67.03;37.28;;;;;;;7.81;100.00;100634.69;5030036;28;20095;-59
2023/04/23 00:34:51;;;;;;;68.72;38.85;;;;;;;7.76;100.00;100631.50;5028356;28;20048;-59
2023/04/23 00:37:19;;;;;;;64.57;37.70;;;;;;;7.67;100.00;100634.63;5031880;28;20045;-59
2023/04/23 00:39:47;;;;;;;69.13;40.60;;;;;;;7.63;100.00;100627.88;5029212;28;20099;-59
2023/04/23 00:42:17;;;;;;;70.32;39.10;;;;;;;7.57;100.00;100619.44;5029568;28;20034;-59
2023/04/23 00:44:45;;;;;;;69.45;38.78;;;;;;;7.61;100.00;100620.13;5029985;28;20543;-59
2023/04/23 00:47:16;;;;;;;72.00;37.88;;;;;;;7.65;100.00;100620.78;5032408;28;20038;-53
2023/04/23 00:49:45;;;;;;;66.97;37.97;;;;;;;7.66;100.00;100622.47;5030470;28;20497;-56
2023/04/23 00:52:13;;;;;;;66.20;37.53;;;;;;;7.70;100.00;100613.53;5027298;28;20140;-55
2023/04/23 00:54:42;;;;;;;67.75;38.00;;;;;;;7.68;100.00;100607.53;5029249;28;20102;-53
2023/04/23 00:57:11;;;;;;;65.40;37.00;;;;;;;7.63;100.00;100613.03;5031047;28;20053;-53
2023/04/23 00:59:40;;;;;;;65.55;36.92;;;;;;;7.68;100.00;100611.00;5032183;28;20049;-52
2023/04/23 01:02:09;;;;;;;62.42;34.47;;;;;;;7.68;100.00;100610.16;5029052;28;20192;-53
2023/04/23 01:04:38;;;;;;;63.30;36.53;;;;;;;7.59;100.00;100609.75;5026517;28;20641;-57
2023/04/23 01:07:06;;;;;;;64.22;37.05;;;;;;;7.55;100.00;100605.63;5028671;28;20060;-55
2023/04/23 01:09:35;;;;;;;62.67;36.35;;;;;;;7.53;100.00;100610.09;5029671;28;20045;-54
2023/04/23 01:12:05;;;;;;;63.17;34.92;;;;;;;7.48;100.00;100604.25;5035134;28;20451;-53
2023/04/23 01:14:33;;;;;;;60.92;35.47;;;;;;;7.45;100.00;100601.81;5034838;28;20552;-53
2023/04/23 01:17:03;;;;;;;59.17;33.58;;;;;;;7.40;100.00;100607.31;5035794;28;20076;-53
2023/04/23 01:19:32;;;;;;;61.50;35.22;;;;;;;7.36;100.00;100599.72;5035621;28;20095;-53
2023/04/23 01:22:01;;;;;;;63.03;35.30;;;;;;;7.34;100.00;100597.19;5033229;28;20045;-52
2023/04/23 01:24:31;;;;;;;60.70;35.08;;;;;;;7.32;100.00;100601.66;5032023;28;20037;-52
2023/04/23 01:27:00;;;;;;;60.17;33.97;;;;;;;7.31;100.00;100599.09;5032168;28;20088;-54
2023/04/23 01:29:29;;;;;;;58.78;33.40;;;;;;;7.25;100.00;100590.69;5031863;28;20135;-53
2023/04/23 01:31:59;;;;;;;51.03;31.13;;;;;;;7.24;100.00;100588.13;5033720;28;20051;-54
2023/04/23 01:34:27;;;;;;;57.75;33.10;;;;;;;7.22;100.00;100577.75;5035585;28;20377;-54
2023/04/23 01:36:56;;;;;;;56.15;32.75;;;;;;;7.20;100.00;100579.63;5035490;28;20112;-54
2023/04/23 01:39:24;;;;;;;59.60;34.17;;;;;;;7.25;100.00;100580.22;5035360;28;20053;-54
2023/04/23 01:41:54;;;;;;;68.00;35.53;;;;;;;7.21;100.00;100570.88;5035208;28;20053;-53
2023/04/23 01:44:22;;;;;;;68.55;36.97;;;;;;;7.24;100.00;100570.69;5032176;28;20049;-53
2023/04/23 01:46:51;;;;;;;63.10;34.95;;;;;;;7.24;100.00;100565.47;5031729;28;20053;-54
2023/04/23 01:49:19;;;;;;;67.38;36.92;;;;;;;7.21;100.00;100565.63;5034248;28;20045;-55
2023/04/23 01:51:47;;;;;;;70.03;36.78;;;;;;;7.21;100.00;100563.03;5033852;28;20057;-55
2023/04/23 01:54:15;;;;;;;66.40;36.08;;;;;;;7.24;100.00;100569.81;5035160;28;20046;-53
2023/04/23 01:56:43;;;;;;;70.30;36.42;;;;;;;7.24;100.00;100572.44;5033642;28;20044;-52
2023/04/23 01:59:13;;;;;;;70.75;36.70;;;;;;;7.21;100.00;100565.63;5031719;28;20045;-53
2023/04/23 02:01:43;;;;;;;67.43;36.05;;;;;;;7.18;100.00;100567.56;5033579;28;20060;-53
2023/04/23 02:04:12;;;;;;;65.47;35.80;;;;;;;7.19;100.00;100562.25;5035011;28;20048;-52
2023/04/23 02:06:42;;;;;;;63.40;34.67;;;;;;;7.21;100.00;100555.19;5035131;28;20115;-53
2023/04/23 02:09:10;;;;;;;66.20;35.83;;;;;;;7.16;100.00;100562.44;5033712;28;20073;-54
2023/04/23 02:11:39;;;;;;;56.70;32.45;;;;;;;7.17;100.00;100553.66;5031429;28;20053;-53
2023/04/23 02:14:07;;;;;;;63.05;33.70;;;;;;;7.15;100.00;100550.28;5031440;28;20107;-54
2023/04/23 02:16:37;;;;;;;66.80;35.10;;;;;;;7.15;100.00;100546.81;5031421;28;20069;-54
2023/04/23 02:19:05;;;;;;;68.75;34.88;;;;;;;7.16;100.00;100549.34;5034251;28;20124;-54
2023/04/23 02:21:33;;;;;;;63.03;34.08;;;;;;;7.17;100.00;100558.03;5033812;28;20056;-55
2023/04/23 02:24:04;;;;;;;65.32;34.25;;;;;;;7.19;100.00;100557.03;5034515;28;20537;-53
2023/04/23 02:26:32;;;;;;;64.78;34.17;;;;;;;7.16;100.00;100553.72;5034595;28;20117;-54
2023/04/23 02:29:02;;;;;;;60.40;33.78;;;;;;;7.14;100.00;100551.19;5031150;28;20049;-52
2023/04/23 02:31:30;;;;;;;73.93;34.15;;;;;;;7.15;100.00;100552.88;5031200;28;20060;-53
2023/04/23 02:34:01;;;;;;;70.28;37.22;;;;;;;7.12;100.00;100550.44;5032487;28;20072;-53
2023/04/23 02:36:31;;;;;;;62.28;33.58;;;;;;;7.13;100.00;100551.28;5030070;28;20513;-54
2023/04/23 02:38:59;;;;;;;63.95;34.65;;;;;;;7.14;100.00;100559.03;5031022;28;20128;-52
2023/04/23 02:41:29;;;;;;;69.75;36.80;;;;;;;7.25;100.00;100551.47;5032347;28;20535;-53
2023/04/23 02:43:58;;;;;;;69.80;36.30;;;;;;;7.21;100.00;100546.47;5030664;28;20046;-54
2023/04/23 02:46:30;;;;;;;66.72;35.17;;;;;;;7.20;100.00;100544.78;5031348;28;20055;-53
2023/04/23 02:49:01;;;;;;;70.68;37.03;;;;;;;7.21;100.00;100542.09;5034130;28;20115;-53
2023/04/23 02:51:30;;;;;;;62.70;33.55;;;;;;;7.26;100.00;100537.44;5031650;28;20069;-53
2023/04/23 02:54:02;;;;;;;67.25;35.35;;;;;;;7.31;100.00;100544.16;5030717;28;20049;-54
2023/04/23 02:56:30;;;;;;;67.30;35.53;;;;;;;7.28;100.00;100539.97;5030221;28;20451;-53
2023/04/23 02:59:00;;;;;;;65.28;35.17;;;;;;;7.28;100.00;100540.81;5029960;28;20045;-54
2023/04/23 03:01:28;;;;;;;68.70;34.00;;;;;;;7.27;100.00;100536.50;5030029;28;20049;-53
2023/04/23 03:04:00;;;;;;;66.88;36.40;;;;;;;7.28;100.00;100546.03;5034073;28;20770;-54
2023/04/23 03:06:30;;;;;;;67.25;35.30;;;;;;;7.32;100.00;100541.50;5033878;28;20161;-51
2023/04/23 03:08:58;;;;;;;63.45;34.83;;;;;;;7.32;100.00;100535.41;5030753;28;20501;-58
2023/04/23 03:11:26;;;;;;;63.22;33.47;;;;;;;7.34;100.00;100534.41;5030577;28;20046;-58
2023/04/23 03:13:54;;;;;;;60.30;32.90;;;;;;;7.35;100.00;100527.38;5031807;28;20132;-54
2023/04/23 03:16:27;;;;;;;65.68;34.78;;;;;;;7.32;100.00;100533.66;5033687;28;20121;-54
2023/04/23 03:18:55;;;;;;;66.55;35.10;;;;;;;7.31;100.00;100531.09;5033681;28;20104;-53
2023/04/23 03:21:25;;;;;;;58.22;32.65;;;;;;;7.30;100.00;100529.44;5033575;28;20065;-54
2023/04/23 03:23:53;;;;;;;57.95;32.50;;;;;;;7.28;100.00;100527.75;5033460;28;20505;-54
2023/04/23 03:26:21;;;;;;;60.90;31.98;;;;;;;7.33;100.00;100537.09;5032697;28;20139;-53
2023/04/23 03:28:49;;;;;;;55.03;31.60;;;;;;;7.26;100.00;100531.38;5029170;28;20099;-54
2023/04/23 03:31:18;;;;;;;58.13;31.92;;;;;;;7.24;100.00;100527.97;5031970;28;20052;-54
2023/04/23 03:33:49;;;;;;;54.47;31.63;;;;;;;7.28;100.00;100534.75;5033216;28;20065;-55
2023/04/23 03:36:17;;;;;;;57.63;31.73;;;;;;;7.26;100.00;100533.97;5032130;28;20049;-54
2023/04/23 03:38:46;;;;;;;51.35;29.30;;;;;;;7.23;100.00;100534.16;5033266;28;20045;-53
2023/04/23 03:41:14;;;;;;;52.70;28.85;;;;;;;7.18;100.00;100523.09;5032021;28;20084;-54
2023/04/23 03:43:42;;;;;;;53.05;29.98;;;;;;;7.07;100.00;100523.69;5033135;28;20055;-53
2023/04/23 03:46:10;;;;;;;56.97;31.55;;;;;;;7.07;100.00;100521.09;5033429;28;20068;-54
2023/04/23 03:48:39;;;;;;;60.83;31.20;;;;;;;7.06;100.00;100522.88;5031790;28;20065;-53
2023/04/23 03:51:07;;;;;;;49.63;29.02;;;;;;;7.03;100.00;100524.81;5033163;28;20998;-52
2023/04/23 03:53:35;;;;;;;56.03;30.48;;;;;;;6.98;100.00;100524.22;5031650;28;20047;-54
2023/04/23 03:56:05;;;;;;;52.80;29.83;;;;;;;7.02;100.00;100518.75;5033194;28;20071;-55
2023/04/23 03:58:33;;;;;;;52.53;30.88;;;;;;;6.96;100.00;100515.63;5033030;28;20049;-53
2023/04/23 04:01:01;;;;;;;52.65;28.42;;;;;;;6.94;100.00;100519.16;5029418;28;20155;-53
2023/04/23 04:03:29;;;;;;;48.95;27.77;;;;;;;6.94;100.00;100521.78;5029883;28;20056;-54
2023/04/23 04:06:00;;;;;;;50.40;29.08;;;;;;;6.94;100.00;100513.09;5032931;28;20535;-55
2023/04/23 04:08:29;;;;;;;49.67;28.42;;;;;;;6.89;100.00;100500.25;5030743;28;20513;-52
2023/04/23 04:10:58;;;;;;;55.20;29.98;;;;;;;6.98;100.00;100500.66;5029298;28;20073;-53
2023/04/23 04:13:27;;;;;;;53.75;30.83;;;;;;;6.95;100.00;100506.91;5032118;28;20245;-54
2023/04/23 04:15:55;;;;;;;53.80;31.10;;;;;;;6.91;100.00;100503.66;5032258;28;20076;-55
2023/04/23 04:18:26;;;;;;;57.45;32.42;;;;;;;6.90;100.00;100512.41;5028238;28;20050;-54
2023/04/23 04:20:54;;;;;;;61.50;32.83;;;;;;;6.91;100.00;100511.50;5027463;28;20057;-55
2023/04/23 04:23:22;;;;;;;57.95;31.38;;;;;;;6.97;100.00;100515.53;5031033;28;20466;-55
2023/04/23 04:25:53;;;;;;;56.88;31.35;;;;;;;6.99;100.00;100510.22;5032376;28;20049;-54
2023/04/23 04:28:21;;;;;;;55.70;31.73;;;;;;;7.02;100.00;100510.03;5031212;28;20053;-54
2023/04/23 04:30:51;;;;;;;67.80;33.15;;;;;;;6.97;100.00;100510.31;5032484;28;20120;-53
2023/04/23 04:33:19;;;;;;;64.70;34.60;;;;;;;6.97;100.00;100514.66;5030687;28;20053;-53
2023/04/23 04:35:50;;;;;;;63.30;33.78;;;;;;;6.94;100.00;100511.31;5026601;28;20041;-53
2023/04/23 04:38:18;;;;;;;61.00;32.08;;;;;;;6.96;100.00;100507.78;5031664;28;20046;-54
2023/04/23 04:40:47;;;;;;;61.88;32.67;;;;;;;6.97;100.00;100512.91;5032295;28;20041;-53
2023/04/23 04:43:17;;;;;;;61.65;30.92;;;;;;;6.92;100.00;100514.94;5031263;28;20116;-53
2023/04/23 04:45:45;;;;;;;60.63;32.63;;;;;;;6.96;100.00;100513.00;5035133;28;20477;-54
2023/04/23 04:48:14;;;;;;;62.03;32.38;;;;;;;6.98;100.00;100519.84;5036152;28;20451;-53
2023/04/23 04:50:43;;;;;;;57.30;31.33;;;;;;;7.05;100.00;100526.41;5035907;28;20445;-54
2023/04/23 04:53:14;;;;;;;59.10;32.00;;;;;;;7.03;100.00;100523.03;5036157;28;20056;-51
2023/04/23 04:55:42;;;;;;;58.97;33.20;;;;;;;7.06;100.00;100524.63;5036312;28;20041;-53
2023/04/23 04:58:10;;;;;;;63.70;32.50;;;;;;;7.03;100.00;100524.81;5034834;28;20054;-52
2023/04/23 05:00:38;;;;;;;56.80;30.42;;;;;;;7.04;100.00;100529.13;5032052;28;20076;-54
2023/04/23 05:03:07;;;;;;;54.90;30.60;;;;;;;7.07;100.00;100523.69;5034912;28;20103;-54
2023/04/23 05:05:38;;;;;;;54.83;31.10;;;;;;;7.05;100.00;100513.34;5035933;28;20084;-53
2023/04/23 05:08:07;;;;;;;54.40;29.33;;;;;;;7.25;100.00;100511.34;5036189;28;20046;-53
2023/04/23 05:10:35;;;;;;;50.25;29.25;;;;;;;7.27;100.00;100515.59;5035903;28;20053;-59
2023/04/23 05:13:03;;;;;;;57.55;32.30;;;;;;;7.28;100.00;100512.03;5036038;28;20037;-58
2023/04/23 05:15:31;;;;;;;55.03;31.23;;;;;;;7.44;100.00;100508.53;5033431;28;20404;-58
2023/04/23 05:17:59;;;;;;;55.25;31.45;;;;;;;7.45;100.00;100518.09;5032598;28;20037;-58
2023/04/23 05:20:28;;;;;;;58.92;32.13;;;;;;;7.43;100.00;100510.31;5030978;28;20047;-59
2023/04/23 05:22:58;;;;;;;54.65;31.08;;;;;;;7.54;100.00;100514.94;5033709;28;20052;-58
2023/04/23 05:25:26;;;;;;;55.00;32.03;;;;;;;7.53;100.00;100513.25;5035912;28;20125;-59
2023/04/23 05:27:54;;;;;;;53.75;30.67;;;;;;;7.57;100.00;100513.94;5035920;28;20084;-58
2023/04/23 05:30:23;;;;;;;48.65;29.05;;;;;;;7.72;100.00;100507.78;5031503;28;20056;-58
2023/04/23 05:32:51;;;;;;;53.92;29.95;;;;;;;7.84;100.00;100508.00;5031988;28;20042;-58
2023/04/23 05:35:19;;;;;;;50.85;29.17;;;;;;;7.73;100.00;100504.25;5031962;28;20567;-58
2023/04/23 05:37:47;;;;;;;46.28;27.63;;;;;;;7.80;100.00;100507.34;5035084;28;20536;-58
2023/04/23 05:40:17;;;;;;;47.72;29.88;;;;;;;7.80;100.00;100499.50;5035252;28;20409;-58
2023/04/23 05:42:49;;;;;;;48.85;28.08;;;;;;;7.84;100.00;100511.47;5032842;28;20123;-58
2023/04/23 05:45:17;;;;;;;46.13;27.55;;;;;;;7.93;100.00;100516.19;5032290;28;20045;-58
2023/04/23 05:47:45;;;;;;;48.97;28.42;;;;;;;7.92;100.00;100524.09;5032087;28;20492;-58
2023/04/23 05:50:13;;;;;;;45.53;28.27;;;;;;;7.95;100.00;100519.53;5030538;28;20608;-58
2023/04/23 05:52:41;;;;;;;47.15;27.25;;;;;;;7.99;100.00;100512.34;5032049;28;20592;-58
2023/04/23 05:55:10;;;;;;;50.15;28.58;;;;;;;8.04;100.00;100506.81;5031844;28;20050;-58
2023/04/23 05:57:39;;;;;;;48.97;27.38;;;;;;;8.08;100.00;100505.69;5034370;28;20049;-53
2023/04/23 06:00:10;;;;;;;49.97;29.33;;;;;;;8.13;100.00;100517.59;5033090;28;20068;-54
2023/04/23 06:02:39;;;;;;;47.83;28.92;;;;;;;8.16;100.00;100513.94;5031383;28;20103;-53
2023/04/23 06:05:08;;;;;;;47.17;29.50;;;;;;;8.25;100.00;100510.78;5032150;28;20045;-54
2023/04/23 06:07:36;;;;;;;47.17;29.10;;;;;;;8.28;100.00;100515.81;5032526;28;20053;-54
2023/04/23 06:10:05;;;;;;;46.10;28.83;;;;;;;8.36;100.00;100509.28;5031313;28;20128;-54
2023/04/23 06:12:37;;;;;;;42.80;27.88;;;;;;;8.43;100.00;100508.78;5034296;28;21005;-54
2023/04/23 06:15:09;;;;;;;48.10;29.20;;;;;;;8.50;100.00;100504.06;5031211;28;20107;-53
2023/04/23 06:17:37;;;;;;;44.42;28.02;;;;;;;8.59;100.00;100502.66;5032616;28;20049;-54
2023/04/23 06:20:10;;;;;;;45.67;28.83;;;;;;;8.69;100.00;100502.91;5034778;28;20049;-55
2023/04/23 06:22:38;;;;;;;44.40;28.15;;;;;;;8.92;100.00;100504.91;5034586;28;20124;-54
2023/04/23 06:25:07;;;;;;;44.33;28.83;;;;;;;8.97;100.00;100491.50;5033894;28;20085;-54
2023/04/23 06:27:35;;;;;;;43.90;27.48;;;;;;;9.04;100.00;100508.56;5031018;28;20103;-53
2023/04/23 06:30:04;;;;;;;42.53;29.27;;;;;;;9.12;100.00;100502.78;5030917;28;20458;-54
2023/04/23 06:32:34;;;;;;;45.28;30.20;;;;;;;9.22;100.00;100500.44;5033422;28;20076;-54
2023/04/23 06:35:03;;;;;;;42.60;28.70;;;;;;;9.30;100.00;100498.16;5034504;28;20654;-55
2023/04/23 06:37:34;;;;;;;42.85;29.23;;;;;;;9.41;100.00;100503.53;5033228;28;20061;-56
2023/04/23 06:40:02;;;;;;;42.88;28.90;;;;;;;9.48;100.00;100496.09;5034149;28;20045;-55
2023/04/23 06:42:30;;;;;;;43.40;27.88;;;;;;;9.62;100.00;100490.75;5034130;28;20103;-55
2023/04/23 06:45:02;;;;;;;38.95;28.17;;;;;;;9.77;100.00;100493.31;5034349;28;20144;-55
2023/04/23 06:47:35;;;;;;;37.75;26.00;;;;;;;9.89;100.00;100492.47;5032797;28;20045;-56
2023/04/23 06:50:04;;;;;;;38.95;27.00;;;;;;;10.06;100.00;100487.88;5032969;28;20065;-56
2023/04/23 06:52:35;;;;;;;37.00;25.85;;;;;;;10.16;100.00;100478.41;5032926;28;20053;-56
2023/04/23 06:55:04;;;;;;;30.98;22.25;;;;;;;10.37;100.00;100477.91;5030584;28;20107;-54
2023/04/23 06:57:33;;;;;;;31.30;22.30;;;;;;;10.42;100.00;100465.28;5030244;28;20072;-56
2023/04/23 07:00:01;;;;;;;32.65;22.35;;;;;;;10.51;100.00;100461.97;5033291;28;20045;-59
2023/04/23 07:02:29;;;;;;;32.20;22.52;;;;;;;10.63;100.00;100469.00;5033792;28;20049;-56
2023/04/23 07:04:59;;;;;;;27.88;21.45;;;;;;;10.75;100.00;100476.97;5033915;28;20060;-55
2023/04/23 07:07:27;;;;;;;27.08;20.55;;;;;;;10.90;100.00;100470.59;5033280;28;20049;-56
2023/04/23 07:09:55;;;;;;;28.08;20.50;;;;;;;11.05;100.00;100467.81;5033826;28;20099;-56
2023/04/23 07:12:24;;;;;;;26.63;20.27;;;;;;;11.25;100.00;100468.97;5031026;28;20079;-56
2023/04/23 07:14:53;;;;;;;24.02;19.33;;;;;;;11.42;100.00;100468.53;5029967;28;20068;-56
2023/04/23 07:17:21;;;;;;;25.80;19.55;;;;;;;11.47;100.00;100462.94;5033687;28;20068;-56
2023/04/23 07:19:49;;;;;;;26.13;20.13;;;;;;;11.64;100.00;100464.31;5032263;28;20049;-56
2023/04/23 07:22:19;;;;;;;25.50;19.55;;;;;;;11.68;100.00;100455.22;5031928;28;20056;-57
2023/04/23 07:24:47;;;;;;;24.00;18.58;;;;;;;11.85;100.00;100440.78;5029694;28;20064;-57
2023/04/23 07:27:15;;;;;;;24.08;18.25;;;;;;;12.03;100.00;100445.59;5031484;28;20384;-57
2023/04/23 07:29:43;;;;;;;22.15;16.30;;;;;;;12.21;100.00;100452.06;5033535;28;20228;-57
2023/04/23 07:32:12;;;;;;;18.52;14.20;;;;;;;12.37;100.00;100458.78;5031786;28;20044;-55
2023/04/23 07:34:40;;;;;;;17.85;13.82;;;;;;;12.49;100.00;100452.53;5028240;28;20714;-57
2023/04/23 07:37:10;;;;;;;16.92;12.15;;;;;;;12.64;100.00;100458.41;5029683;28;20116;-57
2023/04/23 07:39:39;;;;;;;16.50;12.30;;;;;;;12.80;100.00;100455.34;5032220;28;20045;-57
2023/04/23 07:42:11;;;;;;;18.50;13.75;;;;;;;12.98;100.00;100451.22;5032521;28;20536;-61
2023/04/23 07:44:39;;;;;;;17.88;13.52;;;;;;;13.10;100.00;100453.81;5029224;28;20448;-61
2023/04/23 07:47:08;;;;;;;18.25;12.77;;;;;;;13.23;100.00;100451.84;5029262;28;20146;-58
2023/04/23 07:49:36;;;;;;;16.83;11.43;;;;;;;13.41;100.00;100454.78;5027754;28;20099;-61
2023/04/23 07:52:04;;;;;;;13.35;10.90;;;;;;;13.55;100.00;100458.09;5031245;28;20065;-61
2023/04/23 07:54:32;;;;;;;15.35;11.07;;;;;;;13.64;100.00;100452.03;5032833;28;20045;-61
2023/04/23 07:57:02;;;;;;;15.07;11.05;;;;;;;13.79;100.00;100455.19;5032736;28;20065;-62
2023/04/23 07:59:30;;;;;;;15.23;10.88;;;;;;;13.85;100.00;100441.44;5031042;28;20397;-61
2023/04/23 08:01:58;;;;;;;15.93;10.00;;;;;;;14.01;100.00;100444.44;5029219;28;20049;-61
2023/04/23 08:04:26;;;;;;;17.23;10.00;;;;;;;14.12;100.00;100447.97;5027989;28;20084;-61
2023/04/23 08:06:54;;;;;;;15.32;11.00;;;;;;;14.21;100.00;100439.25;5028834;28;20123;-61
2023/04/23 08:09:23;;;;;;;12.93;9.63;;;;;;;14.44;100.00;100433.75;5029187;28;20588;-62
2023/04/23 08:11:51;;;;;;;13.93;9.10;;;;;;;14.46;100.00;100437.94;5028730;28;20053;-61
2023/04/23 08:14:20;;;;;;;12.80;9.07;;;;;;;14.56;100.00;100445.91;5029094;28;20504;-62
2023/04/23 08:16:49;;;;;;;14.05;9.30;;;;;;;14.69;100.00;100438.56;5027438;28;20057;-61
2023/04/23 08:19:17;;;;;;;12.02;8.63;;;;;;;14.94;100.00;100433.72;5027419;28;20053;-61
2023/04/23 08:21:45;;;;;;;12.35;8.65;;;;;;;15.17;100.00;100430.81;5028588;28;20400;-62
2023/04/23 08:24:16;;;;;;;13.18;8.90;;;;;;;15.11;100.00;100436.69;5029560;28;20072;-62
2023/04/23 08:26:45;;;;;;;11.00;8.50;;;;;;;15.36;100.00;100436.06;5030387;28;20052;-61
2023/04/23 08:29:13;;;;;;;12.15;7.95;;;;;;;15.48;100.00;100423.53;5032789;28;20049;-60
2023/04/23 08:31:43;;;;;;;15.00;8.32;;;;;;;15.75;100.00;100429.91;5032630;28;20493;-60
2023/04/23 08:34:11;;;;;;;11.40;8.60;;;;;;;15.86;100.00;100431.56;5032742;28;20136;-61
2023/04/23 08:36:39;;;;;;;12.55;8.25;;;;;;;15.96;100.00;100435.00;5032515;28;20041;-60
2023/04/23 08:39:08;;;;;;;12.93;7.55;;;;;;;15.94;100.00;100434.34;5032249;28;20242;-61
2023/04/23 08:41:41;;;;;;;12.90;7.15;;;;;;;15.90;100.00;100438.25;5032373;28;20451;-61
2023/04/23 08:44:17;;;;;;;10.48;6.75;;;;;;;16.15;100.00;100439.41;5032478;28;20052;-61
2023/04/23 08:46:47;;;;;;;12.65;7.18;;;;;;;16.33;100.00;100426.22;5032104;28;20385;-57
2023/04/23 08:49:17;;;;;;;10.50;6.68;;;;;;;16.52;100.00;100424.41;5028161;28;20038;-57
2023/04/23 08:51:49;;;;;;;10.43;6.47;;;;;;;16.75;100.00;100431.97;5028113;28;20093;-57
2023/04/23 08:54:20;;;;;;;;;;;;;;;16.72;100.00;100428.63;5029688;28;20116;-57
2023/04/23 08:56:51;;;;;;;12.52;6.20;;;;;;;17.09;100.00;100423.38;5028551;28;19928;-57
2023/04/23 08:59:21;;;;;;;10.38;5.70;;;;;;;17.12;100.00;100417.75;5028803;28;20509;-57
2023/04/23 09:01:51;;;;;;;10.85;5.47;;;;;;;16.98;100.00;100416.47;5028582;28;20069;-57
2023/04/23 09:04:20;;;;;;;13.63;6.05;;;;;;;17.04;100.00;100416.69;5027968;28;20089;-57
2023/04/23 09:06:48;;;;;;;11.07;5.28;;;;;;;17.34;100.00;100422.59;5030922;28;20524;-55
2023/04/23 09:09:17;;;;;;;11.48;5.40;;;;;;;17.27;100.00;100416.19;5029700;28;20049;-57
2023/04/23 09:11:45;;;;;;;12.68;4.70;;;;;;;17.49;100.00;100417.53;5028789;28;20111;-58
2023/04/23 09:14:14;;;;;;;9.20;3.90;;;;;;;17.65;100.00;100410.66;5028861;28;20488;-58
2023/04/23 09:16:43;;;;;;;11.90;4.63;;;;;;;17.82;100.00;100403.59;5029910;28;20554;-57
2023/04/23 09:19:13;;;;;;;9.30;4.80;;;;;;;17.98;100.00;100403.72;5031984;28;20041;-57
2023/04/23 09:21:42;;;;;;;9.88;3.80;;;;;;;17.88;100.00;100400.31;5028813;28;20053;-56
2023/04/23 09:24:11;;;;;;;8.80;3.25;;;;;;;18.11;100.00;100402.47;5028542;28;20041;-57
2023/04/23 09:26:45;;;;;;;11.07;3.88;;;;;;;18.18;100.00;100408.81;5031324;28;20084;-57
2023/04/23 09:29:17;;;;;;;11.23;3.78;;;;;;;18.56;100.00;100406.59;5028756;28;20052;-58
2023/04/23 09:31:50;;;;;;;10.85;4.10;;;;;;;18.32;100.00;100402.03;5031116;28;20051;-56
2023/04/23 09:34:21;;;;;;;8.82;3.28;;;;;;;18.62;100.00;100397.94;5034615;28;20042;-56
2023/04/23 09:36:53;;;;;;;11.15;3.33;;;;;;;18.53;100.00;100394.44;5034741;28;20045;-56
2023/04/23 09:39:23;;;;;;;9.68;3.28;;;;;;;18.53;100.00;100393.63;5032287;28;20049;-56
2023/04/23 09:41:52;;;;;;;9.73;2.90;;;;;;;18.75;100.00;100389.50;5031390;28;20051;-58
2023/04/23 09:44:22;;;;;;;6.85;1.98;;;;;;;18.54;100.00;100390.78;5033667;28;20051;-58
2023/04/23 09:46:50;;;;;;;10.30;2.35;;;;;;;18.60;100.00;100383.97;5030279;28;20143;-58
2023/04/23 09:49:23;;;;;;;7.63;2.15;;;;;;;18.34;100.00;100376.91;5031527;28;20540;-58
2023/04/23 09:51:51;;;;;;;8.88;2.13;;;;;;;18.53;100.00;100382.97;5033561;28;20107;-58
2023/04/23 09:54:22;;;;;;;9.63;2.20;;;;;;;18.73;100.00;100380.81;5032040;28;20145;-58
2023/04/23 09:56:52;;;;;;;7.78;1.98;;;;;;;18.84;100.00;100383.19;5033849;28;20045;-57
2023/04/23 09:59:22;;;;;;;7.85;2.22;;;;;;;18.65;100.00;100378.13;5032082;28;20057;-59
2023/04/23 10:02:11;;;;;;;7.28;2.28;;;;;;;19.13;98.89;100371.22;5031503;28;20570;-57
2023/04/23 10:04:41;;;;;;;8.95;1.98;;;;;;;18.86;98.19;100375.84;5029639;28;20053;-57
2023/04/23 10:07:12;;;;;;;11.43;2.20;;;;;;;19.07;98.24;100378.06;5032968;28;20081;-58
2023/04/23 10:09:47;;;;;;;9.93;2.20;;;;;;;19.39;100.00;100379.00;5034949;28;20061;-58
2023/04/23 10:12:17;;;;;;;10.02;2.20;;;;;;;19.56;95.20;100376.31;5031330;28;20095;-58
2023/04/23 10:15:07;;;;;;;9.23;2.30;;;;;;;19.49;93.76;100380.66;5030962;28;20049;-58
2023/04/23 10:17:36;;;;;;;8.05;1.95;;;;;;;19.67;92.45;100375.94;5030534;28;20045;-58
2023/04/23 10:20:07;;;;;;;9.13;2.08;;;;;;;19.84;89.15;100373.28;5034012;28;20041;-58
2023/04/23 10:22:37;;;;;;;6.88;1.92;;;;;;;19.89;88.82;100371.75;5030085;28;20057;-58
2023/04/23 10:25:10;;;;;;;7.32;1.70;;;;;;;20.26;88.45;100372.94;5031217;28;20099;-58
2023/04/23 10:27:40;;;;;;;6.88;1.77;;;;;;;20.59;85.50;100369.25;5030862;28;20097;-58
2023/04/23 10:30:20;;;;;;;4.80;1.50;;;;;;;20.50;84.25;100362.28;5033797;28;20041;-58
2023/04/23 10:32:52;;;;;;;6.07;1.52;;;;;;;20.41;81.90;100362.34;5034214;28;20050;-58
2023/04/23 10:35:22;;;;;;;6.28;1.65;;;;;;;20.34;82.22;100363.19;5034855;28;20484;-58
2023/04/23 10:37:50;;;;;;;6.95;1.90;;;;;;;20.31;80.18;100353.69;5034221;28;20053;-58
2023/04/23 10:40:24;;;;;;;8.63;1.70;;;;;;;20.15;77.05;100362.66;5034327;28;20080;-59
2023/04/23 10:42:54;;;;;;;9.20;2.03;;;;;;;19.97;81.90;100354.88;5033267;28;20504;-58
2023/04/23 10:45:22;;;;;;;7.88;1.73;;;;;;;19.87;80.87;100352.41;5029305;28;20053;-56
2023/04/23 10:47:55;;;;;;;8.90;1.75;;;;;;;20.19;84.19;100347.94;5030338;28;20045;-58
2023/04/23 10:50:27;;;;;;;5.55;1.55;;;;;;;20.20;80.59;100348.75;5029188;28;20647;-57
2023/04/23 10:52:56;;;;;;;10.35;1.42;;;;;;;20.05;79.00;100354.81;5029442;28;20057;-57
2023/04/23 10:55:27;;;;;;;4.55;1.20;;;;;;;19.79;79.34;100340.91;5030723;28;20045;-57
2023/04/23 10:58:02;;;;;;;6.47;1.65;;;;;;;19.63;77.19;100342.63;5030565;28;20156;-57
2023/04/23 11:00:44;;;;;;;9.90;1.70;;;;;;;19.80;78.39;100334.59;5031090;28;20055;-57
2023/04/23 11:03:31;;;;;;;9.13;1.80;;;;;;;20.27;80.93;100337.22;5033829;28;20080;-57
2023/04/23 11:06:03;;;;;;;8.43;1.30;;;;;;;20.25;74.06;100333.06;5033572;28;20398;-58
2023/04/23 11:08:32;;;;;;;30.53;3.60;;;;;;;20.40;74.46;100325.94;5030613;28;20060;-57
2023/04/23 11:11:02;;;;;;;3.92;1.20;;;;;;;20.31;71.50;100326.19;5030203;28;20088;-57
2023/04/23 11:13:30;;;;;;;6.55;1.40;;;;;;;20.75;71.15;100312.19;5030190;28;20095;-57
2023/04/23 11:16:15;;;;;;;7.80;1.25;;;;;;;20.63;68.96;100314.44;5032139;28;20041;-59
2023/04/23 11:19:03;;;;;;;5.93;1.38;;;;;;;20.46;67.47;100307.56;5033161;28;20045;-57
2023/04/23 11:22:00;;;;;;;7.25;1.27;;;;;;;20.32;69.34;100301.16;5029267;28;20096;-58
2023/04/23 11:24:31;;;;;;;8.43;1.40;;;;;;;20.04;71.74;100307.81;5026814;28;20063;-58